createdAt,value
2022-08-01T00:01:59.343Z,98285.78
2022-08-01T00:04:25.983Z,98268.03
2022-08-01T00:06:52.515Z,98276.75
2022-08-01T00:09:24.204Z,98278.19
2022-08-01T00:12:06.585Z,98280.50
2022-08-01T00:14:33.128Z,98277.63
2022-08-01T00:17:03.940Z,98276.41
2022-08-01T00:19:33.964Z,98281.41
2022-08-01T00:22:00.621Z,98280.56
2022-08-01T00:24:27.165Z,98280.81
2022-08-01T00:26:53.668Z,98278.94
2022-08-01T00:30:11.410Z,98282.69
2022-08-01T00:32:07.310Z,98291.75
2022-08-01T00:34:34.558Z,98286.84
2022-08-01T00:37:01.163Z,98296.41
2022-08-01T00:39:27.656Z,98282.53
2022-08-01T00:41:59.632Z,98283.34
2022-08-01T00:44:27.244Z,98286.91
2022-08-01T00:46:53.902Z,98292.50
2022-08-01T00:49:20.550Z,98292.34
2022-08-01T00:51:47.225Z,98290.28
2022-08-01T00:54:16.818Z,98296.94
2022-08-01T00:56:43.882Z,98298.16
2022-08-01T00:59:10.574Z,98302.69
2022-08-01T01:01:39.544Z,98305.16
2022-08-01T01:04:08.550Z,98304.78
2022-08-01T01:06:42.287Z,98299.84
2022-08-01T01:09:17.441Z,98307.75
2022-08-01T01:12:12.732Z,98311.03
2022-08-01T01:14:56.280Z,98308.13
2022-08-01T01:17:49.424Z,98309.38
2022-08-01T01:20:16.467Z,98315.16
2022-08-01T01:22:49.357Z,98304.81
2022-08-01T01:25:40.213Z,98309.59
2022-08-01T01:28:10.076Z,98299.69
2022-08-01T01:30:38.398Z,98304.66
2022-08-01T01:33:07.223Z,98308.75
2022-08-01T01:35:36.744Z,98312.50
2022-08-01T01:38:10.515Z,98311.50
2022-08-01T01:40:37.947Z,98315.25
2022-08-01T01:43:05.737Z,98310.97
2022-08-01T01:45:32.871Z,98313.41
2022-08-01T01:47:59.855Z,98317.78
2022-08-01T01:50:28.816Z,98321.97
2022-08-01T01:52:56.234Z,98314.56
2022-08-01T01:55:23.131Z,98315.38
2022-08-01T01:57:51.214Z,98321.19
2022-08-01T02:00:17.896Z,98324.31
2022-08-01T02:02:45.643Z,98321.44
2022-08-01T02:05:13.792Z,98316.28
2022-08-01T02:07:41.325Z,98315.66
2022-08-01T02:10:09.701Z,98321.88
2022-08-01T02:12:39.121Z,98321.66
2022-08-01T02:15:06.571Z,98316.88
2022-08-01T02:17:38.882Z,98319.13
2022-08-01T02:20:06.467Z,98321.63
2022-08-01T02:22:42.095Z,98322.47
2022-08-01T02:25:32.460Z,98320.81
2022-08-01T02:28:28.217Z,98328.88
2022-08-01T02:30:59.715Z,98330.31
2022-08-01T02:33:37.317Z,98330.94
2022-08-01T02:36:31.474Z,98331.75
2022-08-01T02:38:51.540Z,98332.63
2022-08-01T02:41:20.708Z,98332.78
2022-08-01T02:43:53.085Z,98337.97
2022-08-01T02:46:28.099Z,98335.72
2022-08-01T02:48:56.807Z,98338.41
2022-08-01T02:51:24.540Z,98345.63
2022-08-01T02:53:51.434Z,98342.09
2022-08-01T02:56:18.845Z,98336.16
2022-08-01T02:58:45.979Z,98347.72
2022-08-01T03:01:13.387Z,98350.00
2022-08-01T03:03:40.384Z,98353.09
2022-08-01T03:06:07.675Z,98345.47
2022-08-01T03:08:36.057Z,98345.28
2022-08-01T03:11:03.017Z,98346.34
2022-08-01T03:13:30.477Z,98351.50
2022-08-01T03:15:57.343Z,98343.47
2022-08-01T03:18:26.057Z,98353.16
2022-08-01T03:20:55.450Z,98349.03
2022-08-01T03:23:22.334Z,98345.09
2022-08-01T03:26:04.207Z,98345.75
2022-08-01T03:28:31.284Z,98349.28
2022-08-01T03:30:59.368Z,98347.41
2022-08-01T03:33:25.962Z,98342.47
2022-08-01T03:35:54.747Z,98349.91
2022-08-01T03:38:24.593Z,98351.75
2022-08-01T03:41:04.092Z,98352.00
2022-08-01T03:43:37.704Z,98352.56
2022-08-01T03:46:09.000Z,98347.63
2022-08-01T03:48:39.480Z,98349.50
2022-08-01T03:51:06.670Z,98353.44
2022-08-01T03:53:33.527Z,98364.34
2022-08-01T03:56:01.804Z,98351.38
2022-08-01T03:58:29.932Z,98356.13
2022-08-01T04:00:57.130Z,98359.22
2022-08-01T04:03:24.533Z,98353.25
2022-08-01T04:05:51.496Z,98359.84
2022-08-01T04:08:18.016Z,98359.84
2022-08-01T04:10:44.570Z,98364.78
2022-08-01T04:13:11.088Z,98355.94
2022-08-01T04:15:37.682Z,98364.41
2022-08-01T04:18:04.250Z,98358.22
2022-08-01T04:20:30.824Z,98360.28
2022-08-01T04:22:57.296Z,98370.19
2022-08-01T04:25:31.059Z,98362.56
2022-08-01T04:27:58.313Z,98369.56
2022-08-01T04:30:27.667Z,98377.19
2022-08-01T04:32:55.789Z,98376.38
2022-08-01T04:36:03.006Z,98376.75
2022-08-01T04:38:13.731Z,98379.63
2022-08-01T04:40:42.084Z,98374.47
2022-08-01T04:43:08.713Z,98379.63
2022-08-01T04:45:36.140Z,98379.81
2022-08-01T04:48:03.031Z,98385.81
2022-08-01T04:50:29.658Z,98385.38
2022-08-01T04:52:56.948Z,98384.94
2022-08-01T04:55:23.448Z,98378.72
2022-08-01T04:57:50.074Z,98376.66
2022-08-01T05:00:20.171Z,98376.22
2022-08-01T05:02:47.560Z,98377.06
2022-08-01T05:05:14.102Z,98374.38
2022-08-01T05:07:45.101Z,98371.69
2022-08-01T05:10:12.533Z,98371.69
2022-08-01T05:12:39.038Z,98364.47
2022-08-01T05:15:11.736Z,98371.28
2022-08-01T05:17:43.053Z,98371.06
2022-08-01T05:20:10.550Z,98370.03
2022-08-01T05:22:37.501Z,98373.91
2022-08-01T05:25:05.866Z,98368.34
2022-08-01T05:27:32.630Z,98361.31
2022-08-01T05:30:00.587Z,98365.00
2022-08-01T05:32:28.150Z,98372.84
2022-08-01T05:34:54.700Z,98372.44
2022-08-01T05:37:21.452Z,98368.31
2022-08-01T05:39:47.935Z,98373.47
2022-08-01T05:42:14.471Z,98374.44
2022-08-01T05:44:41.005Z,98386.00
2022-08-01T05:47:07.589Z,98380.59
2022-08-01T05:49:34.254Z,98377.03
2022-08-01T05:52:02.947Z,98383.03
2022-08-01T05:54:29.926Z,98385.28
2022-08-01T05:57:00.496Z,98392.06
2022-08-01T05:59:27.325Z,98383.41
2022-08-01T06:01:53.925Z,98391.47
2022-08-01T06:04:20.565Z,98389.59
2022-08-01T06:06:47.493Z,98386.09
2022-08-01T06:09:14.130Z,98380.94
2022-08-01T06:11:40.671Z,98390.22
2022-08-01T06:14:07.226Z,98388.75
2022-08-01T06:16:33.673Z,98393.97
2022-08-01T06:19:00.241Z,98395.63
2022-08-01T06:21:26.792Z,98392.34
2022-08-01T06:23:53.317Z,98394.53
2022-08-01T06:26:20.306Z,98390.59
2022-08-01T06:28:46.912Z,98397.41
2022-08-01T06:31:14.711Z,98396.56
2022-08-01T06:33:41.228Z,98392.69
2022-08-01T06:36:07.717Z,98404.25
2022-08-01T06:38:34.272Z,98400.91
2022-08-01T06:41:00.784Z,98394.44
2022-08-01T06:43:27.448Z,98397.09
2022-08-01T06:45:54.016Z,98405.28
2022-08-01T06:48:20.536Z,98398.63
2022-08-01T06:50:47.049Z,98399.53
2022-08-01T06:53:13.615Z,98404.06
2022-08-01T06:55:40.197Z,98401.53
2022-08-01T06:58:06.675Z,98401.25
2022-08-01T07:00:33.199Z,98399.22
2022-08-01T07:03:00.529Z,98398.09
2022-08-01T07:05:27.224Z,98391.66
2022-08-01T07:07:53.836Z,98395.13
2022-08-01T07:10:20.416Z,98394.50
2022-08-01T07:12:46.909Z,98394.06
2022-08-01T07:15:13.563Z,98392.34
2022-08-01T07:17:41.402Z,98393.75
2022-08-01T07:20:10.543Z,98397.22
2022-08-01T07:22:37.985Z,98394.47
2022-08-01T07:25:06.814Z,98393.13
2022-08-01T07:27:33.838Z,98389.44
2022-08-01T07:30:00.346Z,98394.44
2022-08-01T07:32:26.932Z,98394.59
2022-08-01T07:34:53.412Z,98389.56
2022-08-01T07:37:47.869Z,98397.19
2022-08-01T07:40:06.984Z,98386.94
2022-08-01T07:42:33.514Z,98386.94
2022-08-01T07:45:00.106Z,98385.88
2022-08-01T07:47:27.053Z,98387.47
2022-08-01T07:50:00.312Z,98389.22
2022-08-01T07:52:27.936Z,98389.28
2022-08-01T07:54:54.602Z,98380.06
2022-08-01T07:57:21.036Z,98378.31
2022-08-01T07:59:47.747Z,98396.53
2022-08-01T08:02:14.457Z,98388.25
2022-08-01T08:04:44.584Z,98390.72
2022-08-01T08:07:13.560Z,98394.09
2022-08-01T08:09:40.039Z,98391.59
2022-08-01T08:12:07.659Z,98386.28
2022-08-01T08:14:34.875Z,98398.50
2022-08-01T08:17:01.854Z,98385.84
2022-08-01T08:19:37.570Z,98386.81
2022-08-01T08:22:04.866Z,98382.25
2022-08-01T08:24:31.593Z,98386.84
2022-08-01T08:27:00.399Z,98386.50
2022-08-01T08:29:28.220Z,98385.31
2022-08-01T08:31:55.791Z,98394.94
2022-08-01T08:34:23.547Z,98387.19
2022-08-01T08:36:50.308Z,98378.75
2022-08-01T08:39:17.649Z,98383.94
2022-08-01T08:41:49.100Z,98389.31
2022-08-01T08:44:17.136Z,98384.06
2022-08-01T08:46:53.337Z,98377.13
2022-08-01T08:49:22.532Z,98392.38
2022-08-01T08:51:50.820Z,98388.84
2022-08-01T08:54:19.072Z,98381.94
2022-08-01T08:56:46.642Z,98379.25
2022-08-01T08:59:14.821Z,98373.63
2022-08-01T09:01:42.295Z,98376.09
2022-08-01T09:04:08.824Z,98381.81
2022-08-01T09:06:35.392Z,98374.53
2022-08-01T09:09:01.923Z,98374.09
2022-08-01T09:11:29.076Z,98379.25
2022-08-01T09:14:05.608Z,98378.06
2022-08-01T09:16:32.973Z,98379.25
2022-08-01T09:19:15.988Z,98389.00
2022-08-01T09:22:00.485Z,98377.72
2022-08-01T09:24:30.479Z,98381.72
2022-08-01T09:26:58.293Z,98385.34
2022-08-01T09:29:37.773Z,98382.06
2022-08-01T09:32:08.397Z,98380.38
2022-08-01T09:34:40.738Z,98391.91
2022-08-01T09:37:08.073Z,98388.97
2022-08-01T09:39:41.052Z,98392.84
2022-08-01T09:42:29.171Z,98394.88
2022-08-01T09:44:56.152Z,98386.09
2022-08-01T09:47:23.366Z,98393.66
2022-08-01T09:49:59.113Z,98390.75
2022-08-01T09:52:28.969Z,98385.72
2022-08-01T09:55:05.341Z,98381.34
2022-08-01T09:57:31.882Z,98382.75
2022-08-01T10:00:01.389Z,98387.22
2022-08-01T10:02:31.398Z,98381.34
2022-08-01T10:05:03.332Z,98382.03
2022-08-01T10:07:42.986Z,98372.41
2022-08-01T10:10:14.954Z,98369.09
2022-08-01T10:12:45.220Z,98374.56
2022-08-01T10:15:14.282Z,98373.03
2022-08-01T10:17:51.037Z,98376.88
2022-08-01T10:20:29.933Z,98374.91
2022-08-01T10:23:00.226Z,98373.63
2022-08-01T10:25:42.208Z,98367.00
2022-08-01T10:28:24.188Z,98363.09
2022-08-01T10:30:52.157Z,98359.34
2022-08-01T10:33:50.487Z,98360.59
2022-08-01T10:36:09.664Z,98358.50
2022-08-01T10:38:37.304Z,98369.53
2022-08-01T10:41:06.395Z,98363.16
2022-08-01T10:43:35.504Z,98346.53
2022-08-01T10:46:03.527Z,98356.44
2022-08-01T10:49:08.566Z,98362.84
2022-08-01T10:51:52.871Z,98357.53
2022-08-01T10:54:25.768Z,98350.66
2022-08-01T10:56:52.938Z,98345.72
2022-08-01T10:59:49.378Z,98351.13
2022-08-01T11:02:12.317Z,98343.31
2022-08-01T11:04:41.670Z,98346.34
2022-08-01T11:07:25.672Z,98337.66
2022-08-01T11:10:14.943Z,98339.28
2022-08-01T11:12:43.903Z,98332.00
2022-08-01T11:15:10.517Z,98328.00
2022-08-01T11:17:42.828Z,98337.09
2022-08-01T11:20:15.277Z,98329.47
2022-08-01T11:23:05.016Z,98334.22
2022-08-01T11:26:06.755Z,98329.13
2022-08-01T11:28:32.147Z,98321.06
2022-08-01T11:31:11.873Z,98318.72
2022-08-01T11:33:40.601Z,98311.28
2022-08-01T11:36:12.992Z,98309.91
2022-08-01T11:38:46.978Z,98309.31
2022-08-01T11:41:13.344Z,98299.47
2022-08-01T11:44:02.149Z,98299.75
2022-08-01T11:46:57.769Z,98305.66
2022-08-01T11:49:48.961Z,98298.13
2022-08-01T11:52:30.572Z,98299.41
2022-08-01T11:55:03.010Z,98298.94
2022-08-01T11:57:34.155Z,98291.34
2022-08-01T12:00:24.523Z,98297.25
2022-08-01T12:03:05.531Z,98290.09
2022-08-01T12:05:34.704Z,98294.28
2022-08-01T12:08:01.882Z,98289.88
2022-08-01T12:10:36.910Z,98286.31
2022-08-01T12:13:14.163Z,98269.75
2022-08-01T12:15:40.716Z,98275.69
2022-08-01T12:18:07.904Z,98275.28
2022-08-01T12:20:40.124Z,98268.03
2022-08-01T12:23:12.064Z,98265.16
2022-08-01T12:25:44.658Z,98256.31
2022-08-01T12:28:14.381Z,98263.28
2022-08-01T12:30:41.262Z,98261.78
2022-08-01T12:33:09.786Z,98272.78
2022-08-01T12:35:37.815Z,98274.63
2022-08-01T12:38:14.726Z,98276.69
2022-08-01T12:40:45.370Z,98268.44
2022-08-01T12:43:27.403Z,98254.59
2022-08-01T12:45:57.769Z,98269.97
2022-08-01T12:48:25.571Z,98266.75
2022-08-01T12:50:58.213Z,98272.38
2022-08-01T12:53:24.837Z,98265.81
2022-08-01T12:55:58.092Z,98263.22
2022-08-01T12:58:32.139Z,98264.72
2022-08-01T13:01:12.961Z,98253.53
2022-08-01T13:03:40.590Z,98258.50
2022-08-01T13:06:15.932Z,98256.22
2022-08-01T13:08:43.181Z,98244.72
2022-08-01T13:11:14.925Z,98255.91
2022-08-01T13:13:42.481Z,98256.44
2022-08-01T13:16:13.510Z,98252.13
2022-08-01T13:18:54.959Z,98245.53
2022-08-01T13:21:21.431Z,98254.91
2022-08-01T13:24:12.280Z,98248.13
2022-08-01T13:26:38.653Z,98238.41
2022-08-01T13:29:06.471Z,98242.06
2022-08-01T13:31:34.448Z,98243.50
2022-08-01T13:34:00.941Z,98242.00
2022-08-01T13:36:32.026Z,98247.59
2022-08-01T13:39:18.141Z,98241.44
2022-08-01T13:41:45.349Z,98238.53
2022-08-01T13:44:12.117Z,98243.63
2022-08-01T13:46:39.545Z,98235.56
2022-08-01T13:49:16.769Z,98235.16
2022-08-01T13:51:43.886Z,98238.16
2022-08-01T13:54:10.532Z,98242.44
2022-08-01T13:56:37.074Z,98241.69
2022-08-01T13:59:03.904Z,98249.06
2022-08-01T14:01:34.260Z,98243.13
2022-08-01T14:04:01.232Z,98234.38
2022-08-01T14:06:27.798Z,98232.06
2022-08-01T14:08:54.389Z,98238.16
2022-08-01T14:11:21.434Z,98238.41
2022-08-01T14:13:48.061Z,98239.53
2022-08-01T14:16:15.066Z,98234.34
2022-08-01T14:18:44.248Z,98234.06
2022-08-01T14:21:11.236Z,98226.88
2022-08-01T14:23:37.920Z,98224.22
2022-08-01T14:26:09.976Z,98228.59
2022-08-01T14:28:39.920Z,98219.63
2022-08-01T14:31:09.719Z,98222.66
2022-08-01T14:33:37.358Z,98227.75
2022-08-01T14:36:28.506Z,98218.81
2022-08-01T14:38:51.467Z,98225.38
2022-08-01T14:41:17.936Z,98221.00
2022-08-01T14:43:44.497Z,98214.69
2022-08-01T14:46:11.360Z,98221.28
2022-08-01T14:48:37.921Z,98213.25
2022-08-01T14:51:05.172Z,98221.38
2022-08-01T14:53:34.346Z,98229.56
2022-08-01T14:56:03.708Z,98214.31
2022-08-01T14:58:30.264Z,98217.91
2022-08-01T15:00:59.231Z,98213.91
2022-08-01T15:03:26.272Z,98219.75
2022-08-01T15:05:52.800Z,98213.91
2022-08-01T15:08:19.352Z,98211.38
2022-08-01T15:10:45.814Z,98224.56
2022-08-01T15:13:12.342Z,98218.47
2022-08-01T15:15:38.941Z,98218.41
2022-08-01T15:18:05.630Z,98222.78
2022-08-01T15:20:32.190Z,98223.69
2022-08-01T15:22:58.778Z,98225.06
2022-08-01T15:25:25.315Z,98229.34
2022-08-01T15:28:06.827Z,98217.09
2022-08-01T15:30:34.144Z,98221.75
2022-08-01T15:33:00.681Z,98224.00
2022-08-01T15:35:27.201Z,98225.53
2022-08-01T15:37:53.697Z,98225.56
2022-08-01T15:40:20.251Z,98229.34
2022-08-01T15:42:46.836Z,98234.06
2022-08-01T15:45:44.574Z,98223.28
2022-08-01T15:48:05.681Z,98232.16
2022-08-01T15:50:32.261Z,98231.34
2022-08-01T15:52:58.731Z,98221.91
2022-08-01T15:55:25.297Z,98230.31
2022-08-01T15:57:51.798Z,98224.03
2022-08-01T16:00:18.395Z,98236.50
2022-08-01T16:02:44.883Z,98234.75
2022-08-01T16:05:11.455Z,98224.50
2022-08-01T16:07:38.085Z,98224.44
2022-08-01T16:10:24.660Z,98227.53
2022-08-01T16:12:51.180Z,98217.16
2022-08-01T16:15:17.816Z,98214.38
2022-08-01T16:17:44.679Z,98216.63
2022-08-01T16:20:11.514Z,98216.31
2022-08-01T16:22:38.118Z,98219.63
2022-08-01T16:25:05.333Z,98212.34
2022-08-01T16:27:31.905Z,98213.94
2022-08-01T16:29:58.413Z,98223.63
2022-08-01T16:32:28.279Z,98213.28
2022-08-01T16:34:56.355Z,98223.66
2022-08-01T16:37:22.828Z,98218.31
2022-08-01T16:39:49.352Z,98224.00
2022-08-01T16:42:15.855Z,98228.03
2022-08-01T16:44:42.901Z,98228.22
2022-08-01T16:47:09.734Z,98226.47
2022-08-01T16:49:36.909Z,98229.47
2022-08-01T16:52:03.858Z,98232.63
2022-08-01T16:54:30.528Z,98242.81
2022-08-01T16:57:07.561Z,98241.53
2022-08-01T16:59:35.533Z,98234.09
2022-08-01T17:02:08.663Z,98233.78
2022-08-01T17:04:35.219Z,98237.00
2022-08-01T17:07:01.830Z,98239.13
2022-08-01T17:09:28.402Z,98244.44
2022-08-01T17:11:54.950Z,98251.72
2022-08-01T17:14:21.963Z,98254.34
2022-08-01T17:16:48.530Z,98260.72
2022-08-01T17:19:15.144Z,98265.25
2022-08-01T17:21:42.374Z,98258.44
2022-08-01T17:24:09.833Z,98268.44
2022-08-01T17:26:36.453Z,98266.00
2022-08-01T17:29:03.745Z,98268.94
2022-08-01T17:31:30.328Z,98269.75
2022-08-01T17:33:56.837Z,98269.03
2022-08-01T17:36:23.558Z,98265.66
2022-08-01T17:38:50.240Z,98265.44
2022-08-01T17:41:17.257Z,98269.44
2022-08-01T17:43:43.801Z,98265.34
2022-08-01T17:46:10.298Z,98270.50
2022-08-01T17:48:36.871Z,98275.34
2022-08-01T17:51:03.695Z,98273.09
2022-08-01T17:53:30.371Z,98269.34
2022-08-01T17:55:58.768Z,98279.28
2022-08-01T17:58:49.224Z,98286.63
2022-08-01T18:01:14.596Z,98287.84
2022-08-01T18:03:42.084Z,98291.84
2022-08-01T18:06:10.153Z,98286.13
2022-08-01T18:08:40.191Z,98293.41
2022-08-01T18:11:06.748Z,98296.03
2022-08-01T18:13:33.744Z,98289.47
2022-08-01T18:16:00.636Z,98296.41
2022-08-01T18:18:33.393Z,98302.78
2022-08-01T18:21:01.470Z,98295.28
2022-08-01T18:23:28.132Z,98296.22
2022-08-01T18:25:54.751Z,98311.28
2022-08-01T18:28:31.300Z,98300.69
2022-08-01T18:30:59.568Z,98299.72
2022-08-01T18:33:26.059Z,98308.81
2022-08-01T18:35:53.671Z,98300.69
2022-08-01T18:38:24.225Z,98301.88
2022-08-01T18:40:51.521Z,98303.31
2022-08-01T18:43:18.078Z,98295.81
2022-08-01T18:45:44.786Z,98300.19
2022-08-01T18:48:11.740Z,98300.91
2022-08-01T18:50:39.414Z,98291.66
2022-08-01T18:53:06.054Z,98296.78
2022-08-01T18:55:32.624Z,98312.53
2022-08-01T18:57:59.172Z,98313.22
2022-08-01T19:00:25.639Z,98309.38
2022-08-01T19:02:53.055Z,98314.41
2022-08-01T19:05:19.725Z,98317.56
2022-08-01T19:08:05.969Z,98316.16
2022-08-01T19:10:33.581Z,98316.06
2022-08-01T19:13:00.884Z,98323.44
2022-08-01T19:15:27.551Z,98332.69
2022-08-01T19:17:54.045Z,98336.81
2022-08-01T19:20:20.706Z,98337.50
2022-08-01T19:22:47.199Z,98330.69
2022-08-01T19:25:15.573Z,98329.41
2022-08-01T19:27:47.790Z,98330.81
2022-08-01T19:30:14.391Z,98331.50
2022-08-01T19:32:46.234Z,98338.66
2022-08-01T19:35:16.905Z,98342.19
2022-08-01T19:37:47.204Z,98343.47
2022-08-01T19:40:26.969Z,98345.81
2022-08-01T19:42:54.862Z,98345.59
2022-08-01T19:45:21.622Z,98354.97
2022-08-01T19:47:52.304Z,98354.97
2022-08-01T19:50:23.694Z,98357.66
2022-08-01T19:52:51.993Z,98366.31
2022-08-01T19:55:18.885Z,98361.38
2022-08-01T19:57:59.342Z,98376.41
2022-08-01T20:00:37.384Z,98382.25
2022-08-01T20:03:04.791Z,98388.94
2022-08-01T20:05:31.387Z,98394.31
2022-08-01T20:07:58.564Z,98400.16
2022-08-01T20:10:25.255Z,98400.41
2022-08-01T20:18:30.206Z,98402.16
2022-08-01T20:20:57.597Z,98408.22
2022-08-01T20:23:24.974Z,98413.28
2022-08-01T20:25:52.947Z,98414.34
2022-08-01T20:28:27.104Z,98417.69
2022-08-01T20:30:56.808Z,98421.06
2022-08-01T20:33:23.432Z,98425.28
2022-08-01T20:35:53.204Z,98426.16
2022-08-01T20:38:27.612Z,98428.66
2022-08-01T20:40:58.454Z,98433.34
2022-08-01T20:43:27.313Z,98429.47
2022-08-01T20:45:54.058Z,98431.88
2022-08-01T20:48:20.933Z,98432.53
2022-08-01T20:51:07.727Z,98429.34
2022-08-01T20:53:40.533Z,98433.41
2022-08-01T20:56:14.963Z,98443.22
2022-08-01T20:58:46.371Z,98437.31
2022-08-01T21:01:18.568Z,98446.28
2022-08-01T21:03:55.809Z,98441.97
2022-08-01T21:06:27.022Z,98439.47
2022-08-01T21:08:56.439Z,98449.13
2022-08-01T21:11:24.039Z,98451.16
2022-08-01T21:13:51.202Z,98457.66
2022-08-01T21:16:25.186Z,98451.31
2022-08-01T21:19:18.021Z,98454.06
2022-08-01T21:21:45.023Z,98463.19
2022-08-01T21:24:19.181Z,98476.00
2022-08-01T21:26:46.408Z,98474.94
2022-08-01T21:29:14.140Z,98467.94
2022-08-01T21:31:41.563Z,98466.69
2022-08-01T21:34:08.753Z,98469.16
2022-08-01T21:36:36.111Z,98472.06
2022-08-01T21:39:05.004Z,98481.84
2022-08-01T21:42:03.294Z,98488.94
2022-08-01T21:44:18.893Z,98484.81
2022-08-01T21:46:48.523Z,98483.00
2022-08-01T21:49:15.133Z,98476.44
2022-08-01T21:51:52.125Z,98484.78
2022-08-01T21:54:34.071Z,98484.38
2022-08-01T21:57:28.188Z,98485.03
2022-08-01T22:00:12.727Z,98484.50
2022-08-01T22:03:01.908Z,98476.69
2022-08-01T22:05:40.529Z,98475.50
2022-08-01T22:08:24.236Z,98469.34
2022-08-01T22:10:57.116Z,98475.44
2022-08-01T22:13:23.756Z,98468.03
2022-08-01T22:15:50.492Z,98474.81
2022-08-01T22:18:17.176Z,98471.97
2022-08-01T22:20:46.858Z,98474.91
2022-08-01T22:23:13.934Z,98478.25
2022-08-01T22:25:41.650Z,98472.94
2022-08-01T22:28:10.233Z,98473.13
2022-08-01T22:30:43.014Z,98474.19
2022-08-01T22:33:16.617Z,98479.63
2022-08-01T22:35:55.144Z,98476.53
2022-08-01T22:38:24.078Z,98480.69
2022-08-01T22:40:53.835Z,98478.66
2022-08-01T22:43:34.360Z,98480.72
2022-08-01T22:46:16.375Z,98492.31
2022-08-01T22:48:51.337Z,98482.19
2022-08-01T22:51:27.514Z,98489.19
2022-08-01T22:54:02.054Z,98489.81
2022-08-01T22:56:30.107Z,98489.00
2022-08-01T22:58:59.551Z,98498.78
2022-08-01T23:01:28.263Z,98500.22
2022-08-01T23:03:57.442Z,98496.09
2022-08-01T23:06:35.855Z,98498.78
2022-08-01T23:09:02.827Z,98499.38
2022-08-01T23:11:29.703Z,98494.25
2022-08-01T23:13:56.397Z,98503.97
2022-08-01T23:16:23.758Z,98496.13
2022-08-01T23:18:50.609Z,98498.19
2022-08-01T23:21:18.109Z,98494.53
2022-08-01T23:23:44.768Z,98491.84
2022-08-01T23:26:11.911Z,98485.00
2022-08-01T23:28:42.100Z,98484.00
2022-08-01T23:31:08.711Z,98469.16
2022-08-01T23:33:35.250Z,98462.94
2022-08-01T23:36:01.789Z,98459.25
2022-08-01T23:38:28.366Z,98465.41
2022-08-01T23:40:54.866Z,98462.53
2022-08-01T23:43:21.444Z,98463.81
2022-08-01T23:46:03.205Z,98453.09
2022-08-01T23:48:35.061Z,98450.59
2022-08-01T23:51:02.600Z,98458.06
2022-08-01T23:53:30.503Z,98458.88
2022-08-01T23:55:58.281Z,98459.31
2022-08-01T23:58:24.810Z,98464.44
